Time;durP1;ratioP1;P1;durP2;ratioP2;P2;SDS_P1;SDS_P2;PMS_P1;PMS_P2;Temp;Humidity;BMP_temperature;BMP_pressure;BME280_temperature;BME280_humidity;BME280_pressure;Samples;Min_cycle;Max_cycle;Signal;HPM_P1;HPM_P2
2022/07/12 00:01:07;;;;;;;;;;;;;;;24.02;47.82;100526.66;5018299;28;19913;-78
2022/07/12 00:03:32;;;;;;;;;;;;;;;23.99;48.04;100524.47;5018314;28;20407;-81
2022/07/12 00:05:58;;;;;;;;;;;;;;;23.98;48.05;100523.66;5017939;28;19920;-77
2022/07/12 00:08:23;;;;;;;;;;;;;;;24.01;47.89;100522.28;5018679;28;20060;-78
2022/07/12 00:10:48;;;;;;;;;;;;;;;24.00;48.18;100515.19;5018189;28;20283;-85
2022/07/12 00:13:15;;;;;;;;;;;;;;;23.99;48.16;100514.38;5018230;28;19917;-79
2022/07/12 00:15:40;;;;;;;;;;;;;;;24.00;48.11;100509.72;5018086;28;19913;-82
2022/07/12 00:18:05;;;;;;;;;;;;;;;24.01;47.85;100508.66;5018057;28;19920;-78
2022/07/12 00:20:31;;;;;;;;;;;;;;;23.99;47.94;100513.53;5018250;28;20335;-79
2022/07/12 00:22:56;;;;;;;;;;;;;;;23.95;48.30;100512.47;5018170;28;19993;-79
2022/07/12 00:25:21;;;;;;;;;;;;;;;23.98;48.02;100512.72;5017905;28;19999;-77
2022/07/12 00:27:46;;;;;;;;;;;;;;;23.99;48.42;100513.53;5018253;28;19921;-79
2022/07/12 00:30:12;;;;;;;;;;;;;;;23.98;48.15;100507.28;5017440;28;19914;-78
2022/07/12 00:32:37;;;;;;;;;;;;;;;23.97;48.38;100513.00;5000530;28;20276;-78
2022/07/12 00:35:03;;;;;;;;;;;;;;;23.94;48.15;100505.34;5017695;28;19921;-80
2022/07/12 00:37:28;;;;;;;;;;;;;;;23.94;48.21;100505.34;5017685;28;19921;-77
2022/07/12 00:39:53;;;;;;;;;;;;;;;23.94;48.12;100497.16;5017875;28;19924;-78
2022/07/12 00:42:19;;;;;;;;;;;;;;;23.95;48.18;100502.34;5017200;28;19924;-79
2022/07/12 00:44:44;;;;;;;;;;;;;;;23.93;48.45;100496.34;5017684;28;19917;-78
2022/07/12 00:47:17;;;;;;;;;;;;;;;23.94;48.37;100494.44;5017711;28;20402;-78
2022/07/12 00:49:43;;;;;;;;;;;;;;;23.93;48.25;100490.91;5017612;28;19920;-77
2022/07/12 00:52:08;;;;;;;;;;;;;;;23.95;48.09;100491.44;5017426;28;19917;-78
2022/07/12 00:54:34;;;;;;;;;;;;;;;23.95;48.30;100490.63;5016100;28;19924;-78
2022/07/12 00:56:59;;;;;;;;;;;;;;;23.94;48.24;100491.72;5017575;28;19921;-78
2022/07/12 00:59:24;;;;;;;;;;;;;;;23.93;48.34;100484.63;5017427;28;19922;-79
2022/07/12 01:01:49;;;;;;;;;;;;;;;23.95;48.26;100485.16;5017481;28;20274;-78
2022/07/12 01:04:18;;;;;;;;;;;;;;;23.92;48.25;100485.72;5017499;28;19917;-80
2022/07/12 01:06:43;;;;;;;;;;;;;;;23.93;48.39;100490.09;5017270;28;19943;-79
2022/07/12 01:09:08;;;;;;;;;;;;;;;23.93;48.18;100490.09;5017410;28;20284;-79
2022/07/12 01:11:34;;;;;;;;;;;;;;;23.93;48.13;100492.81;5015667;28;19918;-82
2022/07/12 01:13:59;;;;;;;;;;;;;;;23.92;48.38;100482.97;5016731;28;19959;-78
2022/07/12 01:16:25;;;;;;;;;;;;;;;23.91;48.58;100484.09;5017054;28;19993;-79
2022/07/12 01:18:50;;;;;;;;;;;;;;;23.90;48.56;100490.63;5016447;28;19921;-78
2022/07/12 01:21:18;;;;;;;;;;;;;;;23.88;48.48;100490.09;5016857;28;19920;-79
2022/07/12 01:23:43;;;;;;;;;;;;;;;23.89;48.36;100489.00;5016599;28;19976;-78
2022/07/12 01:26:08;;;;;;;;;;;;;;;23.88;48.36;100490.91;5015494;28;20367;-78
2022/07/12 01:28:34;;;;;;;;;;;;;;;23.90;48.54;100491.44;5016566;28;19918;-80
2022/07/12 01:30:59;;;;;;;;;;;;;;;23.90;48.20;100501.53;5015918;28;20307;-79
2022/07/12 01:33:26;;;;;;;;;;;;;;;23.90;48.48;100498.81;5015298;28;20402;-82
2022/07/12 01:35:51;;;;;;;;;;;;;;;23.89;48.40;100497.19;5016296;28;19920;-78
2022/07/12 01:38:16;;;;;;;;;;;;;;;23.90;48.40;100496.91;4999995;28;19914;-80
2022/07/12 01:40:42;;;;;;;;;;;;;;;23.90;48.59;100499.63;5000937;28;20004;-78
2022/07/12 01:43:07;;;;;;;;;;;;;;;23.87;48.30;100491.16;4998278;28;19932;-78
2022/07/12 01:45:32;;;;;;;;;;;;;;;23.87;48.55;100500.19;5016036;28;19914;-82
2022/07/12 01:47:58;;;;;;;;;;;;;;;23.87;48.52;100493.91;4999297;28;19913;-78
2022/07/12 01:50:24;;;;;;;;;;;;;;;23.87;48.69;100494.75;5016780;28;19914;-79
2022/07/12 01:52:49;;;;;;;;;;;;;;;23.90;48.50;100499.63;5016246;28;19913;-78
2022/07/12 01:55:14;;;;;;;;;;;;;;;23.88;48.65;100501.00;4998545;28;20010;-79
2022/07/12 01:57:40;;;;;;;;;;;;;;;23.88;48.41;100498.28;5016186;28;19913;-79
2022/07/12 02:00:06;;;;;;;;;;;;;;;23.86;48.42;100501.28;5016436;28;19941;-78
2022/07/12 02:02:32;;;;;;;;;;;;;;;23.87;48.41;100489.28;4998505;28;20269;-81
2022/07/12 02:04:58;;;;;;;;;;;;;;;23.89;48.65;100486.28;5015913;28;20348;-79
2022/07/12 02:07:23;;;;;;;;;;;;;;;23.91;48.46;100484.09;4998353;28;19968;-80
2022/07/12 02:09:48;;;;;;;;;;;;;;;23.88;48.55;100484.63;5016005;28;19913;-77
2022/07/12 02:12:14;;;;;;;;;;;;;;;23.88;48.58;100484.63;5016153;28;19917;-80
2022/07/12 02:14:39;;;;;;;;;;;;;;;23.88;48.55;100481.91;5015886;28;19971;-78
2022/07/12 02:17:05;;;;;;;;;;;;;;;23.88;48.51;100473.72;5016040;28;19963;-78
2022/07/12 02:19:30;;;;;;;;;;;;;;;23.87;48.62;100469.34;5015956;28;19917;-79
2022/07/12 02:21:55;;;;;;;;;;;;;;;23.88;48.60;100469.06;5016470;28;20413;-79
2022/07/12 02:24:20;;;;;;;;;;;;;;;23.87;48.99;100469.34;5015796;28;19913;-78
2022/07/12 02:26:45;;;;;;;;;;;;;;;23.87;48.64;100469.34;5015961;28;19913;-78
2022/07/12 02:29:11;;;;;;;;;;;;;;;23.87;48.66;100464.72;5016170;28;19945;-81
2022/07/12 02:31:36;;;;;;;;;;;;;;;23.87;48.78;100467.44;5015715;28;19913;-78
2022/07/12 02:34:01;;;;;;;;;;;;;;;23.87;48.66;100464.72;5015706;28;20375;-81
2022/07/12 02:36:27;;;;;;;;;;;;;;;23.87;48.66;100472.06;5015588;28;19960;-78
2022/07/12 02:38:52;;;;;;;;;;;;;;;23.87;48.62;100466.59;5015814;28;19914;-79
2022/07/12 02:41:17;;;;;;;;;;;;;;;23.86;48.93;100465.00;5015694;28;19963;-78
2022/07/12 02:43:43;;;;;;;;;;;;;;;23.85;48.63;100471.53;5015924;28;20264;-78
2022/07/12 02:46:08;;;;;;;;;;;;;;;23.87;48.80;100472.91;5015612;28;19936;-81
2022/07/12 02:48:33;;;;;;;;;;;;;;;23.86;48.63;100467.72;5015339;28;19923;-78
2022/07/12 02:50:59;;;;;;;;;;;;;;;23.85;48.71;100460.63;5015221;28;19993;-78
2022/07/12 02:53:24;;;;;;;;;;;;;;;23.84;48.81;100468.00;5015904;28;19917;-79
2022/07/12 02:55:50;;;;;;;;;;;;;;;23.86;48.88;100462.25;5015996;28;20427;-78
2022/07/12 02:58:15;;;;;;;;;;;;;;;23.86;48.73;100465.81;5015456;28;19914;-80
2022/07/12 03:00:40;;;;;;;;;;;;;;;23.85;48.93;100477.78;5014128;28;19920;-78
2022/07/12 03:03:07;;;;;;;;;;;;;;;23.86;48.78;100475.91;5015843;28;19917;-80
2022/07/12 03:05:33;;;;;;;;;;;;;;;23.86;48.86;100470.44;5015368;28;19918;-77
2022/07/12 03:07:58;;;;;;;;;;;;;;;23.86;48.83;100479.44;5015572;28;19983;-78
2022/07/12 03:10:23;;;;;;;;;;;;;;;23.89;48.93;100476.19;5015743;28;19964;-81
2022/07/12 03:12:49;;;;;;;;;;;;;;;23.91;48.80;100487.63;5015331;28;19913;-78
2022/07/12 03:15:14;;;;;;;;;;;;;;;23.94;48.58;100489.81;5015741;28;20256;-79
2022/07/12 03:17:39;;;;;;;;;;;;;;;23.98;48.78;100495.53;5016273;28;19917;-78
2022/07/12 03:20:11;;;;;;;;;;;;;;;24.02;48.58;100491.16;5019930;28;19913;-79
2022/07/12 03:22:40;;;;;;;;;;;;;;;24.02;48.59;100499.34;5019462;28;20383;-81
2022/07/12 03:25:06;;;;;;;;;;;;;;;24.04;48.47;100499.06;5018295;28;19929;-77
2022/07/12 03:27:31;;;;;;;;;;;;;;;24.03;48.67;100498.28;5019592;28;19913;-79
2022/07/12 03:29:57;;;;;;;;;;;;;;;24.05;48.64;100493.34;5019211;28;19980;-78
2022/07/12 03:32:22;;;;;;;;;;;;;;;24.04;48.71;100494.44;5019492;28;19913;-78
2022/07/12 03:34:47;;;;;;;;;;;;;;;24.09;48.69;100496.34;5019128;28;19920;-81
2022/07/12 03:37:13;;;;;;;;;;;;;;;24.10;48.83;100493.34;5012785;28;20008;-78
2022/07/12 03:39:38;;;;;;;;;;;;;;;24.11;48.71;100503.19;4999965;28;19931;-82
2022/07/12 03:42:03;;;;;;;;;;;;;;;24.14;48.67;100505.34;5014512;28;20024;-78
2022/07/12 03:44:30;;;;;;;;;;;;;;;24.14;48.92;100501.78;5019601;28;19913;-81
2022/07/12 03:46:55;;;;;;;;;;;;;;;24.16;48.78;100500.44;5019186;28;20256;-78
2022/07/12 03:49:20;;;;;;;;;;;;;;;24.18;48.23;100494.69;5019129;28;19920;-78
2022/07/12 03:51:45;;;;;;;;;;;;;;;24.17;48.77;100499.31;5018362;28;20000;-80
2022/07/12 03:54:11;;;;;;;;;;;;;;;24.21;48.71;100496.06;5018681;28;19914;-77
2022/07/12 03:59:20;;;;;;;;;;;;;;;24.18;48.55;100490.06;5018810;28;19920;-80
2022/07/12 04:01:45;;;;;;;;;;;;;;;24.19;48.84;100485.41;5000507;28;19918;-78
2022/07/12 04:04:10;;;;;;;;;;;;;;;24.22;48.78;100489.50;5018548;28;19917;-78
2022/07/12 04:06:36;;;;;;;;;;;;;;;24.23;48.76;100489.19;5018575;28;20000;-81
2022/07/12 04:09:01;;;;;;;;;;;;;;;24.23;48.82;100481.00;5018432;28;19914;-78
2022/07/12 04:11:26;;;;;;;;;;;;;;;24.26;48.86;100485.94;5019098;28;19922;-78
2022/07/12 04:13:52;;;;;;;;;;;;;;;24.26;48.94;100482.38;5018508;28;20347;-79
2022/07/12 04:16:17;;;;;;;;;;;;;;;24.28;48.84;100482.91;5018539;28;19914;-79
2022/07/12 04:18:42;;;;;;;;;;;;;;;24.27;48.91;100484.03;5018451;28;19983;-79
2022/07/12 04:21:07;;;;;;;;;;;;;;;24.28;48.78;100482.91;5017905;28;19920;-77
2022/07/12 04:23:33;;;;;;;;;;;;;;;24.25;48.80;100488.94;5018359;28;20359;-79
2022/07/12 04:25:58;;;;;;;;;;;;;;;24.25;49.08;100480.75;5000467;28;19914;-80
2022/07/12 04:28:24;;;;;;;;;;;;;;;24.27;48.71;100476.66;4999753;28;19917;-78
2022/07/12 04:30:49;;;;;;;;;;;;;;;24.27;49.04;100486.78;5017724;28;19920;-78
2022/07/12 04:33:14;;;;;;;;;;;;;;;24.29;48.85;100482.66;5018168;28;19939;-80
2022/07/12 04:35:40;;;;;;;;;;;;;;;24.31;48.90;100482.38;5017691;28;19914;-78
2022/07/12 04:38:05;;;;;;;;;;;;;;;24.32;48.67;100489.47;5017533;28;19920;-81
2022/07/12 04:40:30;;;;;;;;;;;;;;;24.32;48.51;100486.75;5016797;28;20364;-78
2022/07/12 04:42:55;;;;;;;;;;;;;;;24.34;48.77;100490.03;5017639;28;19921;-78
2022/07/12 04:45:21;;;;;;;;;;;;;;;24.35;48.83;100491.63;5018155;28;19913;-81
2022/07/12 04:47:46;;;;;;;;;;;;;;;24.34;49.03;100487.28;5017296;28;19953;-78
2022/07/12 04:50:11;;;;;;;;;;;;;;;24.31;48.79;100491.38;5017570;28;19909;-78
2022/07/12 04:52:39;;;;;;;;;;;;;;;24.32;48.69;100484.84;5017359;28;20367;-81
2022/07/12 04:55:05;;;;;;;;;;;;;;;24.24;48.87;100482.66;5016004;28;19914;-76
2022/07/12 04:57:30;;;;;;;;;;;;;;;24.25;49.23;100470.66;5017169;28;19918;-79
2022/07/12 04:59:55;;;;;;;;;;;;;;;24.26;49.50;100474.19;5017195;28;19921;-81
2022/07/12 05:02:21;;;;;;;;;;;;;;;24.27;49.63;100476.66;5018324;28;19920;-78
2022/07/12 05:04:46;;;;;;;;;;;;;;;24.25;49.36;100478.84;5017223;28;20387;-79
2022/07/12 05:07:11;;;;;;;;;;;;;;;24.21;49.87;100487.84;5016693;28;19913;-78
2022/07/12 05:09:37;;;;;;;;;;;;;;;24.23;49.71;100480.19;5017154;28;19921;-78
2022/07/12 05:12:02;;;;;;;;;;;;;;;24.27;49.92;100482.13;5017028;28;20315;-79
2022/07/12 05:14:27;;;;;;;;;;;;;;;24.24;50.00;100476.38;5016937;28;19951;-79
2022/07/12 05:16:52;;;;;;;;;;;;;;;24.29;49.73;100473.66;5017069;28;19913;-77
2022/07/12 05:19:18;;;;;;;;;;;;;;;24.30;49.97;100469.81;5016948;28;19953;-80
2022/07/12 05:21:44;;;;;;;;;;;;;;;24.28;49.51;100481.00;5016820;28;20360;-76
2022/07/12 05:24:09;;;;;;;;;;;;;;;24.27;49.37;100486.78;5017326;28;19936;-79
2022/07/12 05:26:34;;;;;;;;;;;;;;;24.28;49.12;100482.91;5017468;28;19917;-81
2022/07/12 05:28:59;;;;;;;;;;;;;;;24.35;48.67;100486.19;5017114;28;19953;-79
2022/07/12 05:31:25;;;;;;;;;;;;;;;24.33;49.00;100486.44;5016498;28;19924;-79
2022/07/12 05:33:50;;;;;;;;;;;;;;;24.10;49.67;100492.53;5016373;28;19913;-82
2022/07/12 05:36:15;;;;;;;;;;;;;;;23.96;50.72;100498.53;5016466;28;20279;-77
2022/07/12 05:38:41;;;;;;;;;;;;;;;24.08;50.25;100494.72;5000082;28;20353;-78
2022/07/12 05:41:06;;;;;;;;;;;;;;;24.22;49.15;100497.69;5002370;28;19917;-82
2022/07/12 05:43:31;;;;;;;;;;;;;;;24.32;49.50;100500.41;5016740;28;20403;-79
2022/07/12 05:45:57;;;;;;;;;;;;;;;24.36;49.43;100493.28;5016475;28;20013;-79
2022/07/12 05:48:22;;;;;;;;;;;;;;;24.28;49.20;100496.56;5016392;28;19956;-82
2022/07/12 05:50:47;;;;;;;;;;;;;;;24.37;49.48;100497.66;4999039;28;20363;-78
2022/07/12 05:53:21;;;;;;;;;;;;;;;24.37;49.26;100495.75;5017024;28;19920;-78
2022/07/12 05:55:47;;;;;;;;;;;;;;;24.37;49.21;100492.19;5016383;28;20364;-81
2022/07/12 05:58:12;;;;;;;;;;;;;;;24.35;49.23;100486.19;4998913;28;19967;-78
2022/07/12 06:00:38;;;;;;;;;;;;;;;24.44;49.13;100476.34;5016041;28;19913;-77
2022/07/12 06:03:03;;;;;;;;;;;;;;;24.39;49.16;100470.88;5016159;28;19971;-78
2022/07/12 06:05:28;;;;;;;;;;;;;;;24.51;49.12;100468.66;5015854;28;20390;-80
2022/07/12 06:07:54;;;;;;;;;;;;;;;24.48;48.96;100477.41;5015448;28;19941;-78
2022/07/12 06:10:19;;;;;;;;;;;;;;;24.55;48.91;100464.28;5017655;28;20368;-78
2022/07/12 06:12:44;;;;;;;;;;;;;;;24.59;48.96;100467.28;5020378;28;19987;-79
2022/07/12 06:15:10;;;;;;;;;;;;;;;24.58;49.02;100471.13;5020622;28;19913;-77
2022/07/12 06:17:35;;;;;;;;;;;;;;;24.53;49.45;100476.56;5020874;28;20241;-76
2022/07/12 06:20:01;;;;;;;;;;;;;;;24.63;49.10;100475.72;5018843;28;20352;-78
2022/07/12 06:22:26;;;;;;;;;;;;;;;24.70;49.08;100468.06;5015794;28;19959;-79
2022/07/12 06:24:51;;;;;;;;;;;;;;;24.73;48.34;100468.31;5015645;28;19913;-81
2022/07/12 06:27:16;;;;;;;;;;;;;;;24.71;48.07;100472.44;5014998;28;20401;-77
2022/07/12 06:29:47;;;;;;;;;;;;;;;24.74;48.01;100467.22;5015709;28;19913;-77
2022/07/12 06:32:12;;;;;;;;;;;;;;;24.77;47.80;100463.13;5015695;28;19913;-78
2022/07/12 06:34:38;;;;;;;;;;;;;;;24.77;47.78;100463.13;5015546;28;19921;-81
2022/07/12 06:37:03;;;;;;;;;;;;;;;24.81;48.32;100461.44;5015205;28;19913;-79
2022/07/12 06:39:28;;;;;;;;;;;;;;;24.83;47.97;100467.44;5015711;28;19919;-77
2022/07/12 06:41:54;;;;;;;;;;;;;;;24.84;48.23;100468.28;5014818;28;19928;-79
2022/07/12 06:44:19;;;;;;;;;;;;;;;24.81;48.44;100458.72;5015523;28;20442;-82
2022/07/12 06:46:45;;;;;;;;;;;;;;;24.83;47.56;100461.97;4998152;28;20352;-76
2022/07/12 06:49:10;;;;;;;;;;;;;;;24.80;47.99;100457.09;5020639;28;20027;-76
2022/07/12 06:51:39;;;;;;;;;;;;;;;24.74;47.96;100458.19;5020010;28;20403;-79
2022/07/12 06:54:04;;;;;;;;;;;;;;;24.73;48.54;100451.94;5021162;28;19921;-79
2022/07/12 06:56:29;;;;;;;;;;;;;;;24.71;48.79;100464.22;5020433;28;19914;-77
2022/07/12 06:58:55;;;;;;;;;;;;;;;24.65;48.89;100459.91;5020716;28;19914;-79
2022/07/12 07:01:20;;;;;;;;;;;;;;;24.64;48.98;100463.72;5021187;28;19920;-79
2022/07/12 07:03:45;;;;;;;;;;;;;;;24.69;48.36;100472.69;5019465;28;20356;-77
2022/07/12 07:06:11;;;;;;;;;;;;;;;24.69;48.53;100469.16;5020528;28;19961;-76
2022/07/12 07:08:36;;;;;;;;;;;;;;;24.77;48.42;100471.31;5019806;28;19920;-76
2022/07/12 07:11:02;;;;;;;;;;;;;;;24.85;47.94;100465.28;5019497;28;20452;-76
2022/07/12 07:13:27;;;;;;;;;;;;;;;24.88;47.72;100475.63;5002636;28;20348;-78
2022/07/12 07:15:52;;;;;;;;;;;;;;;24.76;48.15;100472.41;5020339;28;20004;-77
2022/07/12 07:18:17;;;;;;;;;;;;;;;24.77;48.32;100474.03;5019633;28;20497;-81
2022/07/12 07:20:43;;;;;;;;;;;;;;;24.71;48.66;100470.50;5019256;28;19913;-78
2022/07/12 07:23:10;;;;;;;;;;;;;;;24.71;48.39;100472.44;5019911;28;19914;-79
2022/07/12 07:25:35;;;;;;;;;;;;;;;24.69;48.26;100472.69;5021187;28;19924;-81
2022/07/12 07:28:00;;;;;;;;;;;;;;;24.70;48.50;100468.88;5019351;28;19913;-79
2022/07/12 07:33:09;;;;;;;;;;;;;;;24.70;48.63;100470.81;5019747;28;20035;-78
2022/07/12 07:35:34;;;;;;;;;;;;;;;24.76;48.41;100482.53;5020138;28;19937;-79
2022/07/12 07:38:00;;;;;;;;;;;;;;;24.68;48.62;100476.53;5019191;28;19913;-79
2022/07/12 07:40:25;;;;;;;;;;;;;;;24.67;48.87;100476.81;5019408;28;19918;-80
2022/07/12 07:42:50;;;;;;;;;;;;;;;24.71;48.35;100483.34;4998671;28;19961;-78
2022/07/12 07:45:15;;;;;;;;;;;;;;;24.77;48.49;100486.88;4999783;28;20080;-81
2022/07/12 07:47:48;;;;;;;;;;;;;;;24.65;48.69;100479.84;4999261;28;20383;-80
2022/07/12 07:50:13;;;;;;;;;;;;;;;24.68;48.96;100472.97;4981994;28;19913;-80
2022/07/12 07:52:38;;;;;;;;;;;;;;;24.66;48.66;100472.44;5000640;28;19948;-80
2022/07/12 07:55:04;;;;;;;;;;;;;;;24.71;48.39;100473.22;4999220;28;19917;-79
2022/07/12 07:57:29;;;;;;;;;;;;;;;24.73;48.43;100478.41;4999263;28;19914;-81
2022/07/12 07:59:54;;;;;;;;;;;;;;;24.72;48.39;100463.13;4998976;28;19917;-81
2022/07/12 08:02:20;;;;;;;;;;;;;;;24.72;48.48;100472.16;4999456;28;20068;-81
2022/07/12 08:04:45;;;;;;;;;;;;;;;24.73;48.61;100465.59;5002997;28;19914;-79
2022/07/12 08:07:10;;;;;;;;;;;;;;;24.79;48.53;100466.38;5002736;28;19961;-80
2022/07/12 08:09:36;;;;;;;;;;;;;;;24.78;48.47;100463.94;5002785;28;19921;-80
2022/07/12 08:12:01;;;;;;;;;;;;;;;24.81;48.18;100466.91;5003425;28;20383;-82
2022/07/12 08:14:26;;;;;;;;;;;;;;;24.76;48.56;100461.47;4983545;28;19914;-80
2022/07/12 08:16:52;;;;;;;;;;;;;;;24.93;47.77;100472.84;4998250;28;19914;-80
2022/07/12 08:19:18;;;;;;;;;;;;;;;24.97;47.85;100472.31;4998372;28;19914;-80
2022/07/12 08:21:46;;;;;;;;;;;;;;;25.02;47.71;100480.47;4998697;28;19921;-80
2022/07/12 08:24:11;;;;;;;;;;;;;;;24.96;47.72;100470.66;4981239;28;19964;-80
2022/07/12 08:26:36;;;;;;;;;;;;;;;24.99;47.72;100475.56;4981093;28;20415;-80
2022/07/12 08:29:01;;;;;;;;;;;;;;;24.99;47.85;100472.81;4999267;28;19921;-80
2022/07/12 08:31:27;;;;;;;;;;;;;;;25.01;47.72;100476.09;4998294;28;20375;-79
2022/07/12 08:33:52;;;;;;;;;;;;;;;24.98;47.87;100479.41;4997928;28;19932;-83
2022/07/12 08:36:17;;;;;;;;;;;;;;;25.03;47.87;100482.13;4998075;28;19914;-81
2022/07/12 08:38:44;;;;;;;;;;;;;;;25.01;47.74;100474.19;4998011;28;19960;-78
2022/07/12 08:41:13;;;;;;;;;;;;;;;25.06;47.38;100479.63;5003972;28;19929;-78
2022/07/12 08:43:38;;;;;;;;;;;;;;;25.04;47.42;100481.00;5017925;28;19914;-78
2022/07/12 08:46:11;;;;;;;;;;;;;;;25.04;47.67;100478.25;5017602;28;20383;-80
2022/07/12 08:48:36;;;;;;;;;;;;;;;25.04;47.69;100486.47;5017447;28;20363;-81
2022/07/12 08:51:06;;;;;;;;;;;;;;;25.01;47.88;100485.13;5017297;28;19919;-77
2022/07/12 08:53:31;;;;;;;;;;;;;;;25.01;47.69;100487.88;5017313;28;19936;-79
2022/07/12 08:55:57;;;;;;;;;;;;;;;25.05;47.74;100479.91;5017818;28;19914;-77
2022/07/12 08:58:22;;;;;;;;;;;;;;;25.02;47.67;100480.47;5017825;28;19975;-79
2022/07/12 09:00:47;;;;;;;;;;;;;;;24.96;47.88;100487.06;5000609;28;19987;-78
2022/07/12 09:03:14;;;;;;;;;;;;;;;25.07;47.31;100477.72;5018156;28;19925;-81
2022/07/12 09:05:42;;;;;;;;;;;;;;;25.10;47.31;100471.69;5018139;28;19914;-77
2022/07/12 09:08:08;;;;;;;;;;;;;;;25.03;47.69;100463.78;5000137;28;19959;-78
2022/07/12 09:10:34;;;;;;;;;;;;;;;24.86;47.83;100466.88;5017889;28;19914;-78
2022/07/12 09:12:59;;;;;;;;;;;;;;;24.78;48.34;100463.94;5018018;28;19917;-77
2022/07/12 09:15:24;;;;;;;;;;;;;;;24.87;48.29;100468.53;5016759;28;20326;-79
2022/07/12 09:17:57;;;;;;;;;;;;;;;24.79;48.50;100463.66;5017319;28;20399;-81
2022/07/12 09:20:29;;;;;;;;;;;;;;;24.82;48.49;100468.56;5000412;28;20367;-79
2022/07/12 09:22:55;;;;;;;;;;;;;;;24.85;48.26;100465.28;5017032;28;19959;-78
2022/07/12 09:25:21;;;;;;;;;;;;;;;24.91;48.31;100463.31;5018059;28;19913;-78
2022/07/12 09:27:56;;;;;;;;;;;;;;;25.00;47.94;100466.28;5018334;28;19920;-78
2022/07/12 09:30:23;;;;;;;;;;;;;;;25.09;47.79;100459.94;5017892;28;19913;-79
2022/07/12 09:38:19;;;;;;;;;;;;;;;24.69;48.73;100460.97;5018190;28;19921;-78
2022/07/12 09:40:44;;;;;;;;;;;;;;;24.57;49.07;100455.00;5018537;28;19918;-79
2022/07/12 09:43:09;;;;;;;;;;;;;;;24.57;49.03;100452.28;5017471;28;19920;-81
2022/07/12 09:45:34;;;;;;;;;;;;;;;24.60;49.20;100446.25;5014675;28;20471;-80
2022/07/12 09:48:02;;;;;;;;;;;;;;;24.52;49.12;100459.34;5014086;28;19972;-79
2022/07/12 09:50:28;;;;;;;;;;;;;;;24.59;49.09;100444.59;5015163;28;19914;-77
2022/07/12 09:52:53;;;;;;;;;;;;;;;24.59;49.24;100444.59;5020004;28;19956;-79
2022/07/12 09:55:18;;;;;;;;;;;;;;;24.50;49.33;100442.41;5018119;28;19963;-80
2022/07/12 09:57:43;;;;;;;;;;;;;;;24.56;49.02;100440.53;5017690;28;19917;-80
2022/07/12 10:00:11;;;;;;;;;;;;;;;24.54;49.19;100431.78;5018017;28;19913;-77
2022/07/12 10:02:36;;;;;;;;;;;;;;;24.60;49.36;100424.41;5017870;28;19968;-77
2022/07/12 10:05:04;;;;;;;;;;;;;;;24.69;48.73;100434.44;5019145;28;19913;-78
2022/07/12 10:07:30;;;;;;;;;;;;;;;24.64;48.82;100430.94;5018602;28;20305;-78
2022/07/12 10:09:55;;;;;;;;;;;;;;;24.59;49.06;100434.50;5019905;28;19976;-80
2022/07/12 10:12:21;;;;;;;;;;;;;;;24.67;48.86;100433.09;5020658;28;20371;-80
2022/07/12 10:14:46;;;;;;;;;;;;;;;24.67;48.75;100435.84;5017350;28;20272;-79
2022/07/12 10:17:12;;;;;;;;;;;;;;;24.64;48.78;100428.19;5019884;28;19914;-77
2022/07/12 10:19:38;;;;;;;;;;;;;;;24.76;48.77;100430.59;5018786;28;19913;-79
2022/07/12 10:22:04;;;;;;;;;;;;;;;24.67;49.08;100431.19;5018945;28;19913;-79
2022/07/12 10:24:32;;;;;;;;;;;;;;;24.77;48.57;100430.31;5015939;28;19913;-79
2022/07/12 10:27:19;;;;;;;;;;;;;;;24.70;48.73;100432.53;5014632;28;19913;-81
2022/07/12 10:29:45;;;;;;;;;;;;;;;24.89;48.52;100428.06;4957365;29;20045;-79
2022/07/12 10:32:19;;;;;;;;;;;;;;;24.92;48.71;100416.56;4958581;29;19937;-79
2022/07/12 10:34:50;;;;;;;;;;;;;;;25.02;48.50;100420.31;4958262;29;19918;-79
2022/07/12 10:37:16;;;;;;;;;;;;;;;25.05;48.42;100414.28;4943547;29;19918;-80
2022/07/12 10:39:41;;;;;;;;;;;;;;;25.08;48.12;100414.53;4939182;29;20362;-81
2022/07/12 10:42:06;;;;;;;;;;;;;;;25.06;48.44;100404.97;4901537;29;1143105;-78
2022/07/12 10:44:35;;;;;;;;;;;;;;;25.12;48.03;100401.13;4939436;29;19943;-78
2022/07/12 10:47:00;;;;;;;;;;;;;;;25.04;48.49;100404.44;4939460;29;19930;-79
2022/07/12 10:49:26;;;;;;;;;;;;;;;25.07;48.42;100401.16;4923378;29;19963;-79
2022/07/12 10:52:07;;;;;;;;;;;;;;;25.21;47.79;100413.06;4940194;29;20009;-79
2022/07/12 10:54:32;;;;;;;;;;;;;;;25.14;48.14;100409.84;4941210;29;19930;-79
2022/07/12 10:56:57;;;;;;;;;;;;;;;25.21;48.01;100396.66;4939837;29;19914;-82
2022/07/12 10:59:23;;;;;;;;;;;;;;;25.26;47.81;100404.06;4939830;29;19921;-78
2022/07/12 11:01:49;;;;;;;;;;;;;;;25.27;47.92;100395.56;4922987;29;19982;-79
2022/07/12 11:04:14;;;;;;;;;;;;;;;25.32;47.80;100382.94;4923292;29;19927;-77
2022/07/12 11:06:40;;;;;;;;;;;;;;;25.33;47.66;100398.25;4957679;28;19932;-79
2022/07/12 11:09:09;;;;;;;;;;;;;;;25.31;48.02;100384.88;4978815;28;20253;-78
2022/07/12 11:11:35;;;;;;;;;;;;;;;25.33;47.86;100385.38;4979938;28;19933;-81
2022/07/12 11:14:01;;;;;;;;;;;;;;;25.30;47.90;100386.78;4979156;28;20369;-78
2022/07/12 11:16:29;;;;;;;;;;;;;;;25.22;47.75;100379.16;4979618;28;19914;-78
2022/07/12 11:18:55;;;;;;;;;;;;;;;25.21;48.10;100384.91;4978936;28;20313;-79
2022/07/12 11:21:21;;;;;;;;;;;;;;;25.33;47.53;100381.84;4980030;28;19914;-80
2022/07/12 11:23:46;;;;;;;;;;;;;;;25.30;47.87;100384.06;4980220;28;19914;-79
2022/07/12 11:26:12;;;;;;;;;;;;;;;25.32;47.78;100380.19;4979861;28;20016;-81
2022/07/12 11:28:37;;;;;;;;;;;;;;;25.28;47.79;100378.06;4981022;28;20272;-82
2022/07/12 11:31:03;;;;;;;;;;;;;;;25.30;47.51;100373.13;4979810;28;20246;-80
2022/07/12 11:33:33;;;;;;;;;;;;;;;25.30;47.42;100362.16;4980591;28;19914;-79
2022/07/12 11:35:58;;;;;;;;;;;;;;;25.35;47.75;100368.69;4979366;28;19955;-80
2022/07/12 11:38:26;;;;;;;;;;;;;;;25.30;47.65;100359.44;4989679;28;19920;-80
2022/07/12 11:40:56;;;;;;;;;;;;;;;25.23;47.56;100352.63;5007153;28;19917;-78
2022/07/12 11:43:22;;;;;;;;;;;;;;;25.22;48.07;100349.06;5022496;28;20338;-79
2022/07/12 11:45:47;;;;;;;;;;;;;;;25.21;48.13;100347.44;5021767;28;19913;-78
2022/07/12 11:48:13;;;;;;;;;;;;;;;25.22;47.96;100349.06;5022642;28;19920;-78
2022/07/12 11:50:41;;;;;;;;;;;;;;;25.26;47.94;100346.63;5021583;28;20280;-78
2022/07/12 11:53:12;;;;;;;;;;;;;;;25.26;47.92;100346.63;5021600;28;19913;-78
2022/07/12 11:55:41;;;;;;;;;;;;;;;25.14;48.18;100346.16;5021230;28;19920;-78
2022/07/12 11:58:06;;;;;;;;;;;;;;;25.03;48.29;100346.22;5023281;28;19920;-80
2022/07/12 12:00:31;;;;;;;;;;;;;;;25.00;48.53;100354.19;5023279;28;20352;-79
2022/07/12 12:02:57;;;;;;;;;;;;;;;25.06;48.45;100366.69;5023812;28;19928;-77
2022/07/12 12:05:25;;;;;;;;;;;;;;;24.97;48.82;100365.69;5022382;28;19914;-80
2022/07/12 12:07:50;;;;;;;;;;;;;;;25.01;48.66;100364.00;5023755;28;19920;-80
2022/07/12 12:10:16;;;;;;;;;;;;;;;24.98;48.76;100359.94;5022140;28;20268;-78
2022/07/12 12:12:41;;;;;;;;;;;;;;;25.06;48.74;100351.13;5022646;28;19959;-81
2022/07/12 12:15:07;;;;;;;;;;;;;;;25.04;48.71;100345.13;5022177;28;19924;-80
2022/07/12 12:17:33;;;;;;;;;;;;;;;25.18;48.28;100341.72;5022802;28;19913;-81
2022/07/12 12:20:07;;;;;;;;;;;;;;;25.19;48.08;100343.38;5021617;28;20327;-80
2022/07/12 12:22:33;;;;;;;;;;;;;;;25.21;48.01;100338.41;5022575;28;19913;-81
2022/07/12 12:25:03;;;;;;;;;;;;;;;25.18;48.37;100339.81;5022756;28;20022;-78
2022/07/12 12:27:28;;;;;;;;;;;;;;;25.26;48.30;100322.81;5019816;28;20368;-80
2022/07/12 12:29:53;;;;;;;;;;;;;;;25.30;48.30;100323.03;5021662;28;19920;-79
2022/07/12 12:32:19;;;;;;;;;;;;;;;25.15;48.32;100315.78;5020973;28;19921;-78
2022/07/12 12:35:02;;;;;;;;;;;;;;;25.20;48.46;100306.69;5020900;28;19973;-79
2022/07/12 12:37:28;;;;;;;;;;;;;;;25.36;48.17;100304.69;5017349;28;19945;-79
2022/07/12 12:39:53;;;;;;;;;;;;;;;25.33;48.05;100297.84;4998870;28;20276;-79